createdAt,value
2022-08-30T00:02:25.386Z,100.00
2022-08-30T00:04:55.687Z,100.00
2022-08-30T00:07:27.634Z,100.00
2022-08-30T00:09:58.033Z,100.00
2022-08-30T00:12:28.485Z,100.00
2022-08-30T00:14:58.542Z,100.00
2022-08-30T00:17:28.634Z,100.00
2022-08-30T00:19:59.833Z,100.00
2022-08-30T00:22:33.340Z,100.00
2022-08-30T00:25:03.760Z,100.00
2022-08-30T00:27:34.371Z,100.00
2022-08-30T00:30:06.280Z,100.00
2022-08-30T00:32:36.730Z,100.00
2022-08-30T00:35:09.440Z,100.00
2022-08-30T00:37:42.471Z,100.00
2022-08-30T00:40:16.180Z,100.00
2022-08-30T00:42:50.691Z,100.00
2022-08-30T00:45:24.591Z,100.00
2022-08-30T00:47:54.909Z,100.00
2022-08-30T00:50:29.710Z,100.00
2022-08-30T00:53:03.564Z,100.00
2022-08-30T00:55:34.272Z,100.00
2022-08-30T00:58:12.409Z,100.00
2022-08-30T01:00:42.912Z,100.00
2022-08-30T01:03:13.277Z,100.00
2022-08-30T01:05:44.681Z,100.00
2022-08-30T01:08:16.831Z,100.00
2022-08-30T01:10:47.460Z,100.00
2022-08-30T01:13:18.088Z,100.00
2022-08-30T01:15:48.857Z,100.00
2022-08-30T01:18:22.285Z,100.00
2022-08-30T01:21:03.058Z,100.00
2022-08-30T01:23:36.431Z,100.00
2022-08-30T01:26:09.075Z,100.00
2022-08-30T01:28:41.015Z,100.00
2022-08-30T01:31:11.473Z,100.00
2022-08-30T01:33:41.573Z,100.00
2022-08-30T01:36:14.734Z,100.00
2022-08-30T01:38:50.134Z,100.00
2022-08-30T01:41:22.363Z,100.00
2022-08-30T01:43:55.075Z,100.00
2022-08-30T01:46:27.991Z,100.00
2022-08-30T01:49:00.175Z,100.00
2022-08-30T01:51:31.563Z,100.00
2022-08-30T01:54:03.715Z,100.00
2022-08-30T01:56:33.903Z,100.00
2022-08-30T01:59:04.705Z,100.00
2022-08-30T02:01:37.353Z,100.00
2022-08-30T02:04:09.800Z,100.00
2022-08-30T02:06:40.883Z,100.00
2022-08-30T02:09:13.039Z,100.00
2022-08-30T02:11:43.803Z,100.00
2022-08-30T02:14:14.205Z,100.00
2022-08-30T02:16:44.507Z,100.00
2022-08-30T02:19:14.806Z,100.00
2022-08-30T02:21:45.393Z,100.00
2022-08-30T02:24:17.103Z,100.00
2022-08-30T02:26:47.486Z,100.00
2022-08-30T02:29:17.683Z,100.00
2022-08-30T02:31:48.085Z,100.00
2022-08-30T02:34:18.833Z,100.00
2022-08-30T02:36:49.173Z,100.00
2022-08-30T02:39:20.635Z,100.00
2022-08-30T02:41:51.274Z,100.00
2022-08-30T02:44:21.403Z,100.00
2022-08-30T02:46:51.513Z,100.00
2022-08-30T02:49:37.486Z,100.00
2022-08-30T02:52:08.396Z,100.00
2022-08-30T02:54:40.395Z,100.00
2022-08-30T02:57:19.924Z,100.00
2022-08-30T02:59:50.626Z,100.00
2022-08-30T03:02:22.581Z,100.00
2022-08-30T03:04:53.565Z,100.00
2022-08-30T03:07:23.655Z,100.00
2022-08-30T03:09:55.437Z,100.00
2022-08-30T03:12:25.903Z,100.00
2022-08-30T03:14:56.631Z,100.00
2022-08-30T03:17:26.959Z,100.00
2022-08-30T03:19:57.405Z,100.00
2022-08-30T03:22:27.633Z,100.00
2022-08-30T03:25:00.405Z,100.00
2022-08-30T03:27:31.594Z,100.00
2022-08-30T03:30:01.863Z,100.00
2022-08-30T03:32:32.065Z,100.00
2022-08-30T03:35:02.463Z,100.00
2022-08-30T03:37:32.553Z,100.00
2022-08-30T03:40:05.172Z,100.00
2022-08-30T03:42:37.322Z,100.00
2022-08-30T03:45:09.645Z,100.00
2022-08-30T03:47:41.071Z,100.00
2022-08-30T03:50:13.425Z,100.00
2022-08-30T03:52:45.234Z,100.00
2022-08-30T03:55:16.813Z,100.00
2022-08-30T03:57:47.153Z,100.00
2022-08-30T04:00:18.317Z,100.00
2022-08-30T04:02:48.233Z,100.00
2022-08-30T04:05:18.714Z,100.00
2022-08-30T04:07:49.320Z,100.00
2022-08-30T04:10:22.223Z,100.00
2022-08-30T04:12:53.135Z,100.00
2022-08-30T04:15:23.315Z,100.00
2022-08-30T04:17:55.264Z,100.00
2022-08-30T04:20:25.604Z,100.00
2022-08-30T04:22:55.885Z,100.00
2022-08-30T04:25:27.413Z,100.00
2022-08-30T04:27:57.938Z,100.00
2022-08-30T04:30:28.046Z,100.00
2022-08-30T04:32:59.103Z,100.00
2022-08-30T04:35:29.405Z,100.00
2022-08-30T04:38:00.176Z,100.00
2022-08-30T04:40:31.702Z,100.00
2022-08-30T04:43:02.252Z,100.00
2022-08-30T04:45:32.661Z,100.00
2022-08-30T04:48:03.454Z,97.94
2022-08-30T04:50:33.933Z,96.58
2022-08-30T04:53:15.710Z,96.34
2022-08-30T04:55:47.433Z,96.39
2022-08-30T04:58:18.464Z,96.32
2022-08-30T05:00:48.611Z,96.26
2022-08-30T05:03:19.113Z,97.15
2022-08-30T05:05:51.013Z,97.40
2022-08-30T05:08:24.981Z,98.49
2022-08-30T05:10:56.603Z,99.00
2022-08-30T05:13:35.708Z,99.05
2022-08-30T05:16:10.230Z,99.71
2022-08-30T05:18:40.673Z,99.70
2022-08-30T05:21:12.773Z,99.12
2022-08-30T05:23:43.883Z,99.06
2022-08-30T05:26:20.535Z,99.07
2022-08-30T05:28:50.903Z,99.40
2022-08-30T05:31:23.053Z,98.82
2022-08-30T05:33:55.332Z,99.49
2022-08-30T05:36:28.892Z,99.42
2022-08-30T05:39:00.763Z,98.90
2022-08-30T05:41:32.983Z,98.70
2022-08-30T05:44:05.879Z,98.41
2022-08-30T05:46:36.299Z,99.34
2022-08-30T05:49:09.136Z,97.88
2022-08-30T05:51:41.127Z,98.06
2022-08-30T05:54:15.348Z,98.25
2022-08-30T05:56:48.388Z,98.04
2022-08-30T05:59:18.889Z,97.59
2022-08-30T06:01:49.938Z,96.26
2022-08-30T06:04:20.377Z,96.69
2022-08-30T06:06:50.458Z,94.67
2022-08-30T06:09:21.314Z,95.05
2022-08-30T06:11:53.173Z,94.00
2022-08-30T06:14:23.484Z,93.74
2022-08-30T06:16:54.322Z,93.62
2022-08-30T06:19:24.401Z,92.14
2022-08-30T06:21:55.075Z,90.76
2022-08-30T06:24:41.079Z,90.22
2022-08-30T06:27:17.394Z,89.76
2022-08-30T06:29:48.093Z,87.99
2022-08-30T06:32:18.465Z,89.11
2022-08-30T06:34:48.630Z,88.58
2022-08-30T06:37:21.972Z,88.88
2022-08-30T06:40:00.888Z,89.91
2022-08-30T06:42:34.382Z,88.94
2022-08-30T06:45:10.958Z,88.96
2022-08-30T06:47:42.246Z,88.47
2022-08-30T06:50:17.562Z,88.76
2022-08-30T06:52:48.673Z,90.49
2022-08-30T06:55:19.655Z,89.06
2022-08-30T06:57:51.456Z,90.66
2022-08-30T07:00:21.908Z,90.40
2022-08-30T07:02:52.300Z,91.37
2022-08-30T07:05:24.026Z,91.51
2022-08-30T07:07:54.713Z,91.44
2022-08-30T07:10:25.072Z,90.21
2022-08-30T07:12:58.095Z,89.69
2022-08-30T07:15:32.989Z,88.58
2022-08-30T07:18:26.435Z,90.32
2022-08-30T07:20:56.672Z,89.27
2022-08-30T07:23:27.176Z,89.20
2022-08-30T07:25:57.144Z,88.93
2022-08-30T07:28:28.959Z,88.72
2022-08-30T07:30:59.375Z,89.48
2022-08-30T07:33:30.163Z,89.72
2022-08-30T07:36:01.450Z,90.44
2022-08-30T07:38:32.843Z,90.75
2022-08-30T07:41:03.877Z,91.12
2022-08-30T07:43:37.453Z,88.92
2022-08-30T07:46:10.279Z,87.72
2022-08-30T07:48:45.063Z,88.40
2022-08-30T07:51:17.153Z,89.06
2022-08-30T07:53:48.386Z,87.50
2022-08-30T07:56:18.745Z,86.19
2022-08-30T07:58:53.945Z,86.03
2022-08-30T08:01:26.438Z,87.12
2022-08-30T08:03:59.358Z,88.51
2022-08-30T08:06:34.821Z,89.20
2022-08-30T08:09:05.836Z,88.89
2022-08-30T08:11:38.162Z,89.19
2022-08-30T08:14:11.255Z,89.85
2022-08-30T08:16:45.033Z,89.55
2022-08-30T08:19:15.981Z,90.32
2022-08-30T08:21:46.284Z,90.31
2022-08-30T08:24:17.455Z,90.40
2022-08-30T08:26:48.695Z,88.65
2022-08-30T08:29:21.541Z,89.51
2022-08-30T08:31:53.203Z,89.91
2022-08-30T08:34:25.086Z,90.44
2022-08-30T08:36:57.309Z,90.57
2022-08-30T08:39:27.475Z,90.39
2022-08-30T08:42:06.725Z,90.09
2022-08-30T08:44:54.855Z,90.94
2022-08-30T08:47:34.577Z,92.32
2022-08-30T08:50:09.746Z,97.02
2022-08-30T08:53:13.272Z,100.00
2022-08-30T08:55:48.811Z,100.00
2022-08-30T08:58:26.323Z,100.00
2022-08-30T09:01:05.505Z,100.00
2022-08-30T09:03:37.005Z,100.00
2022-08-30T09:06:26.375Z,100.00
2022-08-30T09:08:57.758Z,100.00
2022-08-30T09:11:57.284Z,100.00
2022-08-30T09:14:35.656Z,100.00
2022-08-30T09:17:12.395Z,100.00
2022-08-30T09:19:45.699Z,100.00
2022-08-30T09:22:27.218Z,100.00
2022-08-30T09:25:02.936Z,100.00
2022-08-30T09:27:38.119Z,100.00
2022-08-30T09:30:14.856Z,100.00
2022-08-30T09:32:54.349Z,100.00
2022-08-30T09:35:27.198Z,100.00
2022-08-30T09:38:06.192Z,100.00
2022-08-30T09:40:45.702Z,100.00
2022-08-30T09:43:25.701Z,100.00
2022-08-30T09:46:10.931Z,100.00
2022-08-30T09:48:49.815Z,100.00
2022-08-30T09:51:53.016Z,100.00
2022-08-30T09:54:31.123Z,100.00
2022-08-30T09:57:12.707Z,100.00
2022-08-30T09:59:53.425Z,100.00
2022-08-30T10:02:45.395Z,100.00
2022-08-30T10:05:27.424Z,100.00
2022-08-30T10:08:12.650Z,100.00
2022-08-30T10:10:50.775Z,100.00
2022-08-30T10:13:54.610Z,100.00
2022-08-30T10:16:37.555Z,100.00
2022-08-30T10:19:22.516Z,100.00
2022-08-30T10:22:00.742Z,100.00
2022-08-30T10:24:37.199Z,100.00
2022-08-30T10:27:12.643Z,100.00
2022-08-30T10:29:48.955Z,100.00
2022-08-30T10:32:26.816Z,100.00
2022-08-30T10:35:03.545Z,100.00
2022-08-30T10:37:41.875Z,100.00
2022-08-30T10:40:37.938Z,100.00
2022-08-30T10:43:16.827Z,100.00
2022-08-30T10:45:50.914Z,100.00
2022-08-30T10:48:26.785Z,100.00
2022-08-30T10:51:04.656Z,100.00
2022-08-30T10:53:45.671Z,99.14
2022-08-30T10:56:20.893Z,98.01
2022-08-30T10:58:52.620Z,95.59
2022-08-30T11:01:38.703Z,94.80
2022-08-30T11:04:45.386Z,94.64
2022-08-30T11:07:28.911Z,93.29
2022-08-30T11:10:24.135Z,91.00
2022-08-30T11:13:01.550Z,88.72
2022-08-30T11:15:36.845Z,85.73
2022-08-30T11:18:13.713Z,84.60
2022-08-30T11:20:49.372Z,84.79
2022-08-30T11:23:32.616Z,84.88
2022-08-30T11:26:13.994Z,83.48
2022-08-30T11:29:30.943Z,84.03
2022-08-30T11:32:25.484Z,83.95
2022-08-30T11:35:01.436Z,84.16
2022-08-30T11:37:38.980Z,85.58
2022-08-30T11:40:13.349Z,85.65
2022-08-30T11:42:50.560Z,84.73
2022-08-30T11:45:55.369Z,85.30
2022-08-30T11:48:53.586Z,83.58
2022-08-30T11:52:23.831Z,79.99
2022-08-30T11:55:01.682Z,78.99
2022-08-30T11:57:43.734Z,77.26
2022-08-30T12:00:34.391Z,78.38
2022-08-30T12:03:09.983Z,79.81
2022-08-30T12:05:57.526Z,80.45
2022-08-30T12:08:49.044Z,80.96
2022-08-30T12:12:04.696Z,81.14
2022-08-30T12:15:01.536Z,79.15
2022-08-30T12:18:14.750Z,81.44
2022-08-30T12:20:50.293Z,80.73
2022-08-30T12:23:32.743Z,81.75
2022-08-30T12:26:20.584Z,82.14
2022-08-30T12:28:55.994Z,82.38
2022-08-30T12:31:28.694Z,83.23
2022-08-30T12:34:04.355Z,80.52
2022-08-30T12:36:39.910Z,81.92
2022-08-30T12:39:13.623Z,81.68
2022-08-30T12:41:45.521Z,81.33
2022-08-30T12:44:19.266Z,79.49
2022-08-30T12:46:58.993Z,78.79
2022-08-30T12:49:34.742Z,78.24
2022-08-30T12:52:20.485Z,78.34
2022-08-30T12:54:50.964Z,76.76
2022-08-30T12:57:40.042Z,75.40
2022-08-30T13:00:13.861Z,75.69
2022-08-30T13:02:52.244Z,76.36
2022-08-30T13:05:53.102Z,75.65
2022-08-30T13:08:37.165Z,75.88
2022-08-30T13:11:11.264Z,76.76
2022-08-30T13:13:44.421Z,76.43
2022-08-30T13:16:29.608Z,75.44
2022-08-30T13:19:25.444Z,75.86
2022-08-30T13:22:00.123Z,77.13
2022-08-30T13:24:31.025Z,78.10
2022-08-30T13:27:11.605Z,75.98
2022-08-30T13:29:42.116Z,77.24
2022-08-30T13:32:14.163Z,77.05
2022-08-30T13:34:46.228Z,75.90
2022-08-30T13:40:17.993Z,75.80
2022-08-30T13:42:48.385Z,75.00
2022-08-30T13:48:14.474Z,76.19
2022-08-30T13:50:48.690Z,76.36
2022-08-30T13:53:52.096Z,74.01
2022-08-30T13:56:14.219Z,73.40
2022-08-30T13:58:44.972Z,74.46
2022-08-30T14:01:18.649Z,73.88
2022-08-30T14:07:11.916Z,74.91
2022-08-30T14:09:32.784Z,74.21
2022-08-30T14:12:03.324Z,74.40
2022-08-30T14:14:42.682Z,76.02
2022-08-30T14:17:17.086Z,76.94
2022-08-30T14:19:48.315Z,77.14
2022-08-30T14:22:21.137Z,77.77
2022-08-30T14:24:54.495Z,79.31
2022-08-30T14:27:31.905Z,77.60
2022-08-30T14:30:02.155Z,78.04
2022-08-30T14:32:32.801Z,78.13
2022-08-30T14:35:02.952Z,77.35
2022-08-30T14:37:34.593Z,76.87
2022-08-30T14:40:06.972Z,77.35
2022-08-30T14:42:37.294Z,77.18
2022-08-30T14:45:08.462Z,77.18
2022-08-30T14:47:39.055Z,77.60
2022-08-30T14:50:10.819Z,75.18
2022-08-30T14:52:41.258Z,74.99
2022-08-30T14:55:17.383Z,75.52
2022-08-30T14:57:48.905Z,75.33
2022-08-30T15:00:18.724Z,75.49
2022-08-30T15:02:51.384Z,72.61
2022-08-30T15:05:21.717Z,73.11
2022-08-30T15:07:53.285Z,72.42
2022-08-30T15:10:25.205Z,72.94
2022-08-30T15:12:55.694Z,72.96
2022-08-30T15:15:26.156Z,72.93
2022-08-30T15:17:56.643Z,72.25
2022-08-30T15:20:27.796Z,71.85
2022-08-30T15:22:58.234Z,71.83
2022-08-30T15:25:29.945Z,71.99
2022-08-30T15:28:00.295Z,73.83
2022-08-30T15:30:31.033Z,75.22
2022-08-30T15:33:01.474Z,76.09
2022-08-30T15:35:31.490Z,75.77
2022-08-30T15:38:01.766Z,76.72
2022-08-30T15:40:34.502Z,77.24
2022-08-30T15:43:05.745Z,77.19
2022-08-30T15:45:36.352Z,74.63
2022-08-30T15:48:06.786Z,72.72
2022-08-30T15:50:37.348Z,72.90
2022-08-30T15:53:08.292Z,70.82
2022-08-30T15:55:40.139Z,70.55
2022-08-30T15:58:10.263Z,71.63
2022-08-30T16:00:44.891Z,70.80
2022-08-30T16:03:15.546Z,72.04
2022-08-30T16:05:46.264Z,72.66
2022-08-30T16:08:16.334Z,75.02
2022-08-30T16:10:52.066Z,75.25
2022-08-30T16:13:22.319Z,75.44
2022-08-30T16:15:53.630Z,75.97
2022-08-30T16:18:23.783Z,76.78
2022-08-30T16:21:05.455Z,77.50
2022-08-30T16:23:37.300Z,79.02
2022-08-30T16:26:18.754Z,79.68
2022-08-30T16:28:50.356Z,80.24
2022-08-30T16:31:24.975Z,81.40
2022-08-30T16:34:04.196Z,81.12
2022-08-30T16:36:41.266Z,82.56
2022-08-30T16:39:13.071Z,82.08
2022-08-30T16:42:04.674Z,82.18
2022-08-30T16:44:37.820Z,83.08
2022-08-30T16:47:19.257Z,83.80
2022-08-30T16:49:54.116Z,83.89
2022-08-30T16:52:26.824Z,84.31
2022-08-30T16:55:16.513Z,84.70
2022-08-30T17:01:20.522Z,86.23
2022-08-30T17:03:54.546Z,86.59
2022-08-30T17:06:29.376Z,86.68
2022-08-30T17:09:07.915Z,86.68
2022-08-30T17:11:46.266Z,88.01
2022-08-30T17:14:27.846Z,88.11
2022-08-30T17:17:04.584Z,87.56
2022-08-30T17:19:45.408Z,88.39
2022-08-30T17:22:21.790Z,88.98
2022-08-30T17:24:59.302Z,89.58
2022-08-30T17:27:36.520Z,90.32
2022-08-30T17:30:27.366Z,90.37
2022-08-30T17:33:04.935Z,90.41
2022-08-30T17:35:43.932Z,91.09
2022-08-30T17:38:20.972Z,92.45
2022-08-30T17:41:08.517Z,92.29
2022-08-30T17:43:45.206Z,91.99
2022-08-30T17:46:25.378Z,92.66
2022-08-30T17:49:10.444Z,92.94
2022-08-30T17:52:04.309Z,93.75
2022-08-30T17:54:40.398Z,93.28
2022-08-30T17:57:22.955Z,93.75
2022-08-30T18:03:00.591Z,94.16
2022-08-30T18:05:44.693Z,94.22
2022-08-30T18:08:18.756Z,95.21
2022-08-30T18:10:54.993Z,95.25
2022-08-30T18:13:41.954Z,96.50
2022-08-30T18:16:12.382Z,96.60
2022-08-30T18:21:51.959Z,98.47
2022-08-30T18:24:28.714Z,98.44
2022-08-30T18:26:59.626Z,99.17
2022-08-30T18:29:37.190Z,99.18
2022-08-30T18:32:09.339Z,99.99
2022-08-30T18:37:32.441Z,100.00
2022-08-30T18:40:21.564Z,100.00
2022-08-30T18:43:00.436Z,100.00
2022-08-30T18:48:29.653Z,100.00
2022-08-30T18:51:05.277Z,100.00
2022-08-30T18:56:33.262Z,100.00
2022-08-30T18:59:09.495Z,100.00
2022-08-30T19:01:52.757Z,100.00
2022-08-30T19:07:20.365Z,100.00
2022-08-30T19:13:02.950Z,100.00
2022-08-30T19:26:06.796Z,100.00
2022-08-30T19:28:54.784Z,100.00
2022-08-30T19:34:20.934Z,100.00
2022-08-30T19:36:52.494Z,100.00
2022-08-30T19:39:23.206Z,100.00
2022-08-30T19:41:53.894Z,100.00
2022-08-30T19:44:28.060Z,100.00
2022-08-30T19:47:00.531Z,100.00
2022-08-30T19:49:35.804Z,100.00
2022-08-30T19:52:09.282Z,100.00
2022-08-30T19:57:47.366Z,100.00
2022-08-30T20:00:21.105Z,100.00
2022-08-30T20:02:52.141Z,100.00
2022-08-30T20:05:23.093Z,100.00
2022-08-30T20:07:53.957Z,100.00
2022-08-30T20:10:28.848Z,100.00
2022-08-30T20:12:59.477Z,100.00
2022-08-30T20:15:31.486Z,100.00
2022-08-30T20:18:05.488Z,100.00
2022-08-30T20:20:36.930Z,100.00
2022-08-30T20:23:08.126Z,100.00
2022-08-30T20:24:26.994Z,97.93
2022-08-30T20:25:39.421Z,100.00
2022-08-30T20:28:10.077Z,100.00
2022-08-30T20:30:42.046Z,100.00
2022-08-30T20:33:18.706Z,100.00
2022-08-30T20:35:50.446Z,100.00
2022-08-30T20:38:22.215Z,100.00
2022-08-30T20:40:54.343Z,100.00
2022-08-30T20:43:26.767Z,100.00
2022-08-30T20:45:58.826Z,100.00
2022-08-30T20:48:29.065Z,100.00
2022-08-30T20:50:59.685Z,100.00
2022-08-30T20:53:29.935Z,100.00
2022-08-30T20:56:00.282Z,100.00
2022-08-30T20:58:31.224Z,100.00
2022-08-30T21:01:03.206Z,100.00
2022-08-30T21:03:33.425Z,100.00
2022-08-30T21:06:03.797Z,100.00
2022-08-30T21:08:34.136Z,100.00
2022-08-30T21:11:04.535Z,100.00
2022-08-30T21:13:34.658Z,100.00
2022-08-30T21:16:07.581Z,100.00
2022-08-30T21:18:39.375Z,100.00
2022-08-30T21:21:14.658Z,100.00
2022-08-30T21:23:45.317Z,100.00
2022-08-30T21:26:16.025Z,100.00
2022-08-30T21:28:47.995Z,100.00
2022-08-30T21:31:22.492Z,100.00
2022-08-30T21:33:54.472Z,100.00
2022-08-30T21:36:44.735Z,100.00
2022-08-30T21:39:21.285Z,100.00
2022-08-30T21:41:54.786Z,100.00
2022-08-30T21:44:27.278Z,100.00
2022-08-30T21:46:59.095Z,100.00
2022-08-30T21:49:29.346Z,100.00
2022-08-30T21:52:00.214Z,100.00
2022-08-30T21:54:31.617Z,100.00
2022-08-30T21:57:05.251Z,100.00
2022-08-30T21:59:35.952Z,100.00
2022-08-30T22:02:07.926Z,100.00
2022-08-30T22:04:38.885Z,100.00
2022-08-30T22:07:09.722Z,100.00
2022-08-30T22:09:40.131Z,100.00
2022-08-30T22:12:10.602Z,100.00
2022-08-30T22:14:41.262Z,100.00
2022-08-30T22:17:13.027Z,100.00
2022-08-30T22:19:43.192Z,100.00
2022-08-30T22:22:14.422Z,100.00
2022-08-30T22:24:44.562Z,100.00
2022-08-30T22:27:15.211Z,100.00
2022-08-30T22:29:45.402Z,100.00
2022-08-30T22:32:17.021Z,100.00
2022-08-30T22:34:47.802Z,100.00
2022-08-30T22:37:18.071Z,100.00
2022-08-30T22:39:51.592Z,100.00
2022-08-30T22:42:22.082Z,100.00
2022-08-30T22:44:53.253Z,100.00
2022-08-30T22:47:24.971Z,100.00
2022-08-30T22:49:56.082Z,100.00
2022-08-30T22:52:26.221Z,100.00
2022-08-30T22:55:01.031Z,100.00
2022-08-30T22:57:31.582Z,100.00
2022-08-30T23:00:03.132Z,100.00
2022-08-30T23:02:35.087Z,100.00
2022-08-30T23:05:06.912Z,100.00
2022-08-30T23:07:37.221Z,100.00
2022-08-30T23:10:09.377Z,100.00
2022-08-30T23:12:39.747Z,100.00
2022-08-30T23:15:13.666Z,100.00
2022-08-30T23:17:45.155Z,100.00
2022-08-30T23:20:15.765Z,100.00
2022-08-30T23:22:46.178Z,100.00
2022-08-30T23:25:41.442Z,100.00
2022-08-30T23:28:32.544Z,100.00
2022-08-30T23:31:28.960Z,100.00
2022-08-30T23:34:18.087Z,100.00
2022-08-30T23:37:06.223Z,100.00
2022-08-30T23:39:53.697Z,100.00
2022-08-30T23:42:41.108Z,100.00
2022-08-30T23:45:29.313Z,100.00
2022-08-30T23:48:16.844Z,100.00
2022-08-30T23:51:05.428Z,100.00
2022-08-30T23:53:52.867Z,100.00
2022-08-30T23:56:40.457Z,100.00
2022-08-30T23:59:27.967Z,100.00
